Time;durP1;ratioP1;P1;durP2;ratioP2;P2;SDS_P1;SDS_P2;PMS_P1;PMS_P2;Temp;Humidity;BMP_temperature;BMP_pressure;BME280_temperature;BME280_humidity;BME280_pressure;Samples;Min_cycle;Max_cycle;Signal;HPM_P1;HPM_P2
2023/12/29 00:01:32;;;;;;;3.63;1.50;;;;;;;10.29;71.59;100019.97;4931000;29;20102;-83
2023/12/29 00:03:58;;;;;;;8.43;1.35;;;;;;;10.29;71.50;100018.22;4919577;29;20612;-84
2023/12/29 00:06:25;;;;;;;1.70;0.88;;;;;;;10.33;71.65;100038.19;4926479;29;20135;-84
2023/12/29 00:08:51;;;;;;;5.20;0.73;;;;;;;10.34;71.03;100016.38;4914910;29;20048;-83
2023/12/29 00:11:21;;;;;;;1.83;0.85;;;;;;;10.37;71.37;100021.59;4929243;29;20057;-84
2023/12/29 00:13:49;;;;;;;3.92;1.13;;;;;;;10.40;70.98;100023.28;4944677;29;20424;-84
2023/12/29 00:16:16;;;;;;;3.30;0.93;;;;;;;10.40;71.27;100023.28;4929626;29;20134;-85
2023/12/29 00:18:43;;;;;;;4.13;0.57;;;;;;;10.42;71.15;100022.34;4924749;29;20047;-84
2023/12/29 00:21:10;;;;;;;4.65;0.93;;;;;;;10.39;71.24;100025.03;4925279;29;20500;-83
2023/12/29 00:23:36;;;;;;;3.75;0.93;;;;;;;10.35;71.23;99993.69;4931612;29;20497;-84
2023/12/29 00:26:05;;;;;;;3.40;1.20;;;;;;;10.41;71.28;100009.31;4935016;29;20121;-84
2023/12/29 00:28:32;;;;;;;6.63;1.35;;;;;;;10.36;71.64;100001.53;4930624;29;20046;-84
2023/12/29 00:30:58;;;;;;;5.82;1.08;;;;;;;10.38;71.49;100012.84;4933587;29;20051;-84
2023/12/29 00:33:26;;;;;;;3.30;1.00;;;;;;;10.36;72.03;100000.69;4931173;29;20122;-83
2023/12/29 00:35:53;;;;;;;7.28;1.15;;;;;;;10.30;72.45;100009.47;4931904;29;20050;-85
2023/12/29 00:38:20;;;;;;;2.58;1.10;;;;;;;10.41;72.39;100004.94;4932845;29;20142;-84
2023/12/29 00:40:46;;;;;;;5.00;1.23;;;;;;;10.40;72.40;99989.25;4916397;29;20055;-83
2023/12/29 00:43:13;;;;;;;5.35;0.63;;;;;;;10.32;72.87;99994.59;4913009;29;20059;-83
2023/12/29 00:45:39;;;;;;;6.57;2.00;;;;;;;10.40;72.51;99991.88;4929595;29;20151;-85
2023/12/29 00:48:12;;;;;;;4.43;0.90;;;;;;;10.35;72.84;99980.59;4912740;29;20063;-85
2023/12/29 00:50:39;;;;;;;3.08;0.75;;;;;;;10.34;73.35;99991.94;4932330;29;20556;-83
2023/12/29 00:53:05;;;;;;;2.15;0.70;;;;;;;10.29;73.54;99972.91;4909952;29;20143;-84
2023/12/29 00:55:32;;;;;;;4.22;0.98;;;;;;;10.30;74.04;99974.59;4928366;29;20519;-82
2023/12/29 00:57:58;;;;;;;3.03;0.73;;;;;;;10.33;74.29;99977.16;4932777;29;20047;-83
2023/12/29 01:00:25;;;;;;;3.05;1.48;;;;;;;10.34;74.29;99982.38;4916842;29;20087;-83
2023/12/29 01:02:51;;;;;;;2.88;0.88;;;;;;;10.34;74.49;99968.41;4950239;29;20554;-85
2023/12/29 01:05:18;;;;;;;1.52;1.00;;;;;;;10.35;74.34;99963.22;4933443;29;20051;-84
2023/12/29 01:07:45;;;;;;;3.30;0.70;;;;;;;10.37;74.47;99955.31;4934670;29;20047;-83
2023/12/29 01:10:11;;;;;;;5.45;0.70;;;;;;;10.35;74.50;99965.81;4914122;29;20047;-84
2023/12/29 01:12:38;;;;;;;6.00;1.02;;;;;;;10.38;74.33;99965.75;4930161;29;20154;-83
2023/12/29 01:15:05;;;;;;;2.92;0.93;;;;;;;10.41;74.71;99967.44;4928939;29;20047;-83
2023/12/29 01:17:32;;;;;;;2.45;0.85;;;;;;;10.39;74.86;99969.22;4931720;29;20495;-84
2023/12/29 01:19:58;;;;;;;3.35;0.82;;;;;;;10.43;75.14;99965.69;4913214;29;20055;-84
2023/12/29 01:22:25;;;;;;;4.13;0.75;;;;;;;10.43;75.33;99966.53;4926383;29;20105;-84
2023/12/29 01:24:51;;;;;;;4.40;1.08;;;;;;;10.44;75.14;99972.59;4936290;29;20079;-84
2023/12/29 01:27:18;;;;;;;6.18;0.95;;;;;;;10.42;75.51;99958.72;4927664;29;20469;-83
2023/12/29 01:29:47;;;;;;;6.05;2.67;;;;;;;10.43;75.54;99965.69;4932536;29;20111;-85
2023/12/29 01:32:13;;;;;;;6.20;0.70;;;;;;;10.37;75.54;99968.41;4928465;29;20051;-83
2023/12/29 01:34:40;;;;;;;3.08;0.60;;;;;;;10.45;75.53;99944.72;4930942;29;20126;-83
2023/12/29 01:37:08;;;;;;;5.07;0.98;;;;;;;10.39;76.01;99936.09;4911111;29;20047;-81
2023/12/29 01:39:35;;;;;;;4.82;1.00;;;;;;;10.47;75.65;99959.50;4944829;29;20042;-83
2023/12/29 01:42:02;;;;;;;3.40;1.13;;;;;;;10.52;75.42;99954.16;4919051;29;20082;-84
2023/12/29 01:44:28;;;;;;;3.70;0.90;;;;;;;10.53;75.42;99953.25;4929296;29;21241;-82
2023/12/29 01:46:59;;;;;;;1.83;0.90;;;;;;;10.44;76.22;99946.44;4945423;29;20051;-83
2023/12/29 01:49:26;;;;;;;6.10;0.82;;;;;;;10.42;76.52;99929.94;4929217;29;20468;-84
2023/12/29 01:51:59;;;;;;;7.68;0.90;;;;;;;10.35;77.83;99952.75;4945383;29;20055;-86
2023/12/29 01:54:35;;;;;;;1.30;0.80;;;;;;;10.32;78.47;99928.34;4915874;29;20074;-84
2023/12/29 01:57:03;;;;;;;4.38;1.20;;;;;;;10.31;79.10;99932.75;4927438;29;20048;-82
2023/12/29 01:59:31;;;;;;;6.75;1.27;;;;;;;10.29;79.17;99925.81;4930265;29;20146;-83
2023/12/29 02:01:57;;;;;;;3.72;0.68;;;;;;;10.28;79.69;99938.00;4915377;29;20077;-84
2023/12/29 02:04:28;;;;;;;3.63;1.10;;;;;;;10.22;80.24;99939.00;4932094;29;20091;-84
2023/12/29 02:06:56;;;;;;;1.10;0.75;;;;;;;10.22;80.50;99933.75;4927561;29;20059;-84
2023/12/29 02:09:23;;;;;;;8.13;2.67;;;;;;;10.24;80.20;99936.34;4927873;29;20074;-83
2023/12/29 02:11:51;;;;;;;1.45;0.57;;;;;;;10.23;80.54;99927.66;4927186;29;20063;-84
2023/12/29 02:14:19;;;;;;;0.98;0.70;;;;;;;10.25;80.28;99901.47;4931973;29;20052;-83
2023/12/29 02:17:15;;;;;;;6.45;1.15;;;;;;;10.24;80.15;99915.41;4931787;29;20420;-84
2023/12/29 02:19:46;;;;;;;8.63;0.77;;;;;;;10.27;80.10;99905.75;4929143;29;20059;-83
2023/12/29 02:22:13;;;;;;;3.13;1.27;;;;;;;10.25;80.34;99899.69;4915595;29;20071;-84
2023/12/29 02:24:40;;;;;;;2.08;0.80;;;;;;;10.27;80.47;99902.28;4914045;29;20626;-83
2023/12/29 02:27:40;;;;;;;4.43;1.13;;;;;;;10.27;80.23;99905.75;4927704;29;20125;-82
2023/12/29 02:30:46;;;;;;;8.02;1.02;;;;;;;10.28;80.58;99898.75;4914298;29;20154;-83
2023/12/29 02:33:22;;;;;;;2.33;0.52;;;;;;;10.34;80.49;99908.25;4929244;29;20040;-83
2023/12/29 02:35:53;;;;;;;2.65;0.70;;;;;;;10.26;81.17;99893.56;4917862;29;20820;-85
2023/12/29 02:38:20;;;;;;;2.75;0.77;;;;;;;10.22;81.50;99901.50;4933030;28;20074;-83
2023/12/29 02:40:47;;;;;;;2.58;0.57;;;;;;;10.26;81.57;99888.34;4934550;29;20067;-83
2023/12/29 02:43:14;;;;;;;3.28;0.90;;;;;;;10.26;81.59;99890.97;4917928;29;20138;-84
2023/12/29 02:45:43;;;;;;;3.08;0.50;;;;;;;10.20;81.94;99888.44;4916939;29;20055;-84
2023/12/29 02:48:12;;;;;;;2.97;0.57;;;;;;;10.28;81.70;99883.06;4917825;29;20047;-84
2023/12/29 02:50:38;;;;;;;6.93;0.80;;;;;;;10.19;82.09;99862.34;4917361;29;20384;-83
2023/12/29 02:53:05;;;;;;;6.25;0.88;;;;;;;10.25;82.31;99880.53;4935409;29;20063;-84
2023/12/29 02:55:32;;;;;;;6.82;0.90;;;;;;;10.25;82.41;99880.53;4916067;29;20059;-84
2023/12/29 02:57:58;;;;;;;1.00;0.85;;;;;;;10.23;82.54;99879.69;4936370;29;20051;-84
2023/12/29 03:00:27;;;;;;;2.38;0.70;;;;;;;10.25;83.13;99883.16;4920355;29;20190;-84
2023/12/29 03:02:55;;;;;;;3.17;0.65;;;;;;;10.27;83.17;99865.66;4916864;29;20517;-83
2023/12/29 03:05:21;;;;;;;5.00;0.60;;;;;;;10.23;83.89;99879.69;4936729;29;20057;-85
2023/12/29 03:07:48;;;;;;;3.65;0.65;;;;;;;10.20;83.73;99857.06;4913882;29;20166;-84
2023/12/29 03:10:14;;;;;;;2.00;0.60;;;;;;;10.25;83.71;99878.75;4914364;29;20048;-85
2023/12/29 03:12:41;;;;;;;3.30;0.60;;;;;;;10.24;83.39;99858.72;4916096;29;20057;-83
2023/12/29 03:15:08;;;;;;;1.30;0.63;;;;;;;10.27;83.63;99857.81;4919140;29;20048;-83
2023/12/29 03:17:37;;;;;;;3.63;0.43;;;;;;;10.31;83.36;99864.72;4930890;29;20049;-84
2023/12/29 03:20:05;;;;;;;4.65;0.80;;;;;;;10.32;83.58;99855.94;4924127;29;20070;-82
2023/12/29 03:22:32;;;;;;;5.45;0.63;;;;;;;10.33;83.49;99851.59;4918305;29;20071;-83
2023/12/29 03:24:58;;;;;;;1.73;0.70;;;;;;;10.33;83.57;99838.53;4919716;28;20524;-83
2023/12/29 03:27:25;;;;;;;4.20;0.50;;;;;;;10.26;83.68;99849.09;4949776;29;20142;-83
2023/12/29 03:29:51;;;;;;;3.95;0.68;;;;;;;10.34;83.09;99832.38;4937778;29;20051;-83
2023/12/29 03:32:18;;;;;;;4.95;0.93;;;;;;;10.36;82.72;99841.09;4932485;29;20043;-83
2023/12/29 03:34:45;;;;;;;4.15;0.65;;;;;;;10.38;82.38;99848.03;4934904;29;20528;-83
2023/12/29 03:37:14;;;;;;;2.17;0.80;;;;;;;10.40;81.95;99853.22;4940011;29;20052;-83
2023/12/29 03:39:41;;;;;;;1.20;0.52;;;;;;;10.42;81.06;99841.81;4920384;29;20051;-83
2023/12/29 03:42:09;;;;;;;1.98;0.52;;;;;;;10.45;81.15;99840.03;4933503;29;20201;-83
2023/12/29 03:44:38;;;;;;;2.25;0.90;;;;;;;10.48;80.77;99845.19;4933441;29;20050;-84
2023/12/29 03:47:05;;;;;;;5.22;0.75;;;;;;;10.46;79.87;99854.84;4933303;29;20063;-83
2023/12/29 03:49:32;;;;;;;1.38;0.40;;;;;;;10.52;78.18;99844.22;4931326;29;20160;-85
2023/12/29 03:51:58;;;;;;;1.75;0.40;;;;;;;10.60;77.38;99842.34;4930397;29;20061;-84
2023/12/29 03:54:25;;;;;;;0.85;0.30;;;;;;;10.57;77.01;99824.06;4931035;29;20393;-84
2023/12/29 03:56:52;;;;;;;1.35;0.32;;;;;;;10.57;77.32;99835.41;4929862;29;20055;-84
2023/12/29 03:59:18;;;;;;;0.70;0.25;;;;;;;10.51;78.12;99825.06;4920287;29;20048;-84
2023/12/29 04:01:45;;;;;;;1.65;0.20;;;;;;;10.44;79.92;99794.69;4919844;29;20150;-84
2023/12/29 04:04:17;;;;;;;0.40;0.17;;;;;;;10.24;81.92;99834.34;4930944;29;20051;-84
2023/12/29 04:06:43;;;;;;;1.52;0.50;;;;;;;10.22;83.09;99836.09;4930086;29;20102;-83
2023/12/29 04:09:10;;;;;;;0.40;0.30;;;;;;;10.12;83.74;99822.38;4933667;29;20040;-85
2023/12/29 04:11:37;;;;;;;2.55;0.30;;;;;;;10.08;84.84;99797.19;4931074;29;20126;-83
2023/12/29 04:14:03;;;;;;;6.03;0.50;;;;;;;10.03;85.71;99806.88;4930075;29;20047;-84
2023/12/29 04:16:30;;;;;;;0.50;0.25;;;;;;;9.93;86.57;99814.03;4917779;29;20055;-84
2023/12/29 04:18:56;;;;;;;2.13;0.50;;;;;;;9.97;86.64;99813.06;4916661;29;20058;-84
2023/12/29 04:21:23;;;;;;;1.65;0.30;;;;;;;9.99;87.05;99818.28;4915908;29;20511;-83
2023/12/29 04:23:49;;;;;;;3.63;0.68;;;;;;;9.96;86.91;99820.94;4929497;29;20078;-83
2023/12/29 04:26:19;;;;;;;3.85;0.50;;;;;;;9.97;87.24;99827.91;4933362;29;20044;-83
2023/12/29 04:28:45;;;;;;;1.55;0.52;;;;;;;9.93;87.65;99833.22;4932067;29;20511;-83
2023/12/29 04:31:12;;;;;;;3.45;0.52;;;;;;;9.96;87.00;99815.72;4936949;29;20039;-84
2023/12/29 04:33:39;;;;;;;1.90;0.35;;;;;;;9.95;86.44;99817.50;4932813;29;20047;-85
2023/12/29 04:36:06;;;;;;;0.93;0.50;;;;;;;10.04;86.15;99837.38;4932275;29;20101;-83
2023/12/29 04:38:32;;;;;;;1.42;0.30;;;;;;;9.98;85.74;99834.88;4930232;29;20115;-83
2023/12/29 04:40:59;;;;;;;1.95;0.60;;;;;;;10.05;85.67;99823.38;4918225;29;20246;-83
2023/12/29 04:43:25;;;;;;;1.80;0.30;;;;;;;9.99;85.92;99802.59;4931513;29;20070;-83
2023/12/29 04:45:52;;;;;;;6.05;0.68;;;;;;;10.04;85.81;99835.59;4942505;29;20046;-84
2023/12/29 04:48:19;;;;;;;0.35;0.28;;;;;;;10.02;86.07;99813.84;4933235;29;20098;-83
2023/12/29 04:50:48;;;;;;;1.02;0.28;;;;;;;9.95;85.91;99820.09;4917935;29;20063;-84
2023/12/29 04:53:17;;;;;;;1.70;0.28;;;;;;;10.05;85.46;99842.56;4924139;29;20529;-82
2023/12/29 04:55:44;;;;;;;1.75;0.30;;;;;;;9.98;85.79;99827.88;4927728;29;20066;-84
2023/12/29 04:58:10;;;;;;;3.35;0.45;;;;;;;10.04;86.24;99834.75;4946111;29;20103;-84
2023/12/29 05:00:37;;;;;;;0.90;0.30;;;;;;;9.88;88.04;99813.25;4931954;29;20059;-83
2023/12/29 05:03:04;;;;;;;2.00;0.40;;;;;;;9.93;89.10;99837.56;4929900;29;20058;-84
2023/12/29 05:05:30;;;;;;;0.47;0.43;;;;;;;9.90;89.75;99853.31;4909827;29;20062;-84
2023/12/29 05:07:57;;;;;;;4.18;0.45;;;;;;;9.79;91.14;99850.91;4923272;29;20058;-83
2023/12/29 05:10:23;;;;;;;1.20;0.13;;;;;;;9.80;92.29;99842.16;4930747;29;20043;-84
2023/12/29 05:12:49;;;;;;;2.20;0.35;;;;;;;9.79;93.54;99836.97;4928752;29;20047;-85
2023/12/29 05:15:18;;;;;;;1.80;0.30;;;;;;;9.69;96.57;99842.38;4929125;29;20051;-83
2023/12/29 05:17:45;;;;;;;0.77;0.40;;;;;;;9.66;98.91;99844.16;4933095;29;20448;-84
2023/12/29 05:20:12;;;;;;;0.57;0.32;;;;;;;9.64;99.58;99833.75;4931937;29;20398;-84
2023/12/29 05:22:39;;;;;;;2.28;0.30;;;;;;;9.70;99.64;99840.59;4926075;29;20126;-85
2023/12/29 05:25:06;;;;;;;4.90;0.30;;;;;;;9.58;100.00;99839.94;4922418;29;20393;-85
2023/12/29 05:27:32;;;;;;;1.60;0.57;;;;;;;9.63;100.00;99834.63;4927551;29;20043;-84
2023/12/29 05:29:59;;;;;;;0.30;0.30;;;;;;;9.62;100.00;99840.78;4916433;29;20039;-84
2023/12/29 05:32:26;;;;;;;0.70;0.70;;;;;;;9.70;100.00;99840.59;4928719;29;20162;-83
2023/12/29 05:34:52;;;;;;;0.40;0.40;;;;;;;9.70;100.00;99838.88;4926115;29;20110;-85
2023/12/29 05:37:19;;;;;;;3.53;0.65;;;;;;;9.74;100.00;99837.91;4929984;29;20046;-85
2023/12/29 05:39:45;;;;;;;0.73;0.43;;;;;;;9.79;100.00;99847.41;4914856;29;20047;-84
2023/12/29 05:42:12;;;;;;;2.60;0.80;;;;;;;9.78;100.00;99833.50;4931390;29;20055;-85
2023/12/29 05:44:38;;;;;;;2.17;1.10;;;;;;;9.76;100.00;99830.03;4936375;29;20059;-83
2023/12/29 05:47:08;;;;;;;5.80;0.70;;;;;;;9.79;100.00;99840.47;4912586;29;20084;-82
2023/12/29 05:49:38;;;;;;;3.40;0.85;;;;;;;9.75;100.00;99826.56;4919219;29;20114;-84
2023/12/29 05:52:08;;;;;;;5.68;0.88;;;;;;;9.80;100.00;99830.84;4934878;29;20043;-83
2023/12/29 05:54:35;;;;;;;4.38;1.15;;;;;;;9.74;100.00;99831.84;4931070;29;20602;-84
2023/12/29 05:57:02;;;;;;;2.88;0.73;;;;;;;9.77;100.00;99818.69;4933114;29;20056;-83
2023/12/29 05:59:28;;;;;;;3.50;0.73;;;;;;;9.81;100.00;99833.44;4930992;29;20525;-84
2023/12/29 06:01:56;;;;;;;3.72;1.13;;;;;;;9.86;100.00;99831.59;4919830;29;20090;-85
2023/12/29 06:04:22;;;;;;;3.28;1.58;;;;;;;9.89;100.00;99836.75;4922408;29;20512;-84
2023/12/29 06:06:49;;;;;;;6.90;1.00;;;;;;;9.83;100.00;99831.66;4933374;29;20181;-85
2023/12/29 06:09:15;;;;;;;3.42;1.05;;;;;;;9.87;100.00;99840.31;4930862;29;20047;-84
2023/12/29 06:11:45;;;;;;;4.03;1.00;;;;;;;9.82;100.00;99845.63;4931633;29;20409;-84
2023/12/29 06:14:11;;;;;;;2.70;1.05;;;;;;;9.87;100.00;99841.16;4940813;29;20563;-84
2023/12/29 06:16:38;;;;;;;3.90;1.02;;;;;;;9.94;100.00;99842.75;4918116;29;20078;-84
2023/12/29 06:19:04;;;;;;;5.53;1.60;;;;;;;9.92;100.00;99849.78;4931417;29;20047;-84
2023/12/29 06:21:34;;;;;;;0.90;0.90;;;;;;;9.89;100.00;99833.28;4929074;29;20040;-83
2023/12/29 06:24:00;;;;;;;4.82;1.40;;;;;;;9.88;100.00;99850.72;4918246;29;20047;-84
2023/12/29 06:26:27;;;;;;;5.28;1.38;;;;;;;9.83;100.00;99851.69;4917535;29;20055;-84
2023/12/29 06:28:53;;;;;;;2.00;1.02;;;;;;;9.76;100.00;99853.56;4932314;29;20047;-83
2023/12/29 06:31:24;;;;;;;5.72;2.03;;;;;;;9.76;100.00;99848.34;4921204;29;20044;-84
2023/12/29 06:33:50;;;;;;;10.90;1.30;;;;;;;9.77;100.00;99845.69;4932965;29;20051;-84
2023/12/29 06:36:17;;;;;;;5.93;1.42;;;;;;;9.76;100.00;99845.72;4913106;29;20066;-84
2023/12/29 06:38:48;;;;;;;2.60;1.52;;;;;;;9.68;100.00;99829.34;4929437;29;20554;-84
2023/12/29 06:41:14;;;;;;;7.47;1.80;;;;;;;9.70;100.00;99832.75;4939649;29;20062;-84
2023/12/29 06:43:42;;;;;;;6.25;1.45;;;;;;;9.69;100.00;99831.91;4929833;29;20047;-84
2023/12/29 06:46:09;;;;;;;5.38;1.70;;;;;;;9.76;100.00;99828.31;4926785;29;20055;-84
2023/12/29 06:48:35;;;;;;;4.25;1.75;;;;;;;9.78;100.00;99823.03;4912549;28;20229;-84
2023/12/29 06:51:02;;;;;;;8.27;1.67;;;;;;;9.89;100.00;99831.50;4919295;29;20082;-83
2023/12/29 06:53:28;;;;;;;6.63;2.28;;;;;;;9.96;100.00;99831.41;4933626;29;20495;-84
2023/12/29 06:55:55;;;;;;;12.27;1.67;;;;;;;9.97;99.01;99844.44;4912412;29;20056;-83
2023/12/29 06:58:21;;;;;;;10.82;1.83;;;;;;;10.06;97.14;99830.34;4926661;29;20078;-85
2023/12/29 07:00:49;;;;;;;2.58;1.50;;;;;;;10.12;96.74;99845.03;4928781;29;20035;-83
2023/12/29 07:03:16;;;;;;;4.32;1.60;;;;;;;10.05;95.06;99824.25;4918190;29;20144;-84
2023/12/29 07:05:42;;;;;;;4.70;1.30;;;;;;;10.17;94.00;99848.41;4919151;29;20047;-82
2023/12/29 07:08:09;;;;;;;3.10;1.20;;;;;;;10.21;93.53;99850.94;4933223;29;20179;-84
2023/12/29 07:10:42;;;;;;;3.70;1.30;;;;;;;10.22;93.60;99857.03;4926870;29;20086;-84
2023/12/29 07:13:08;;;;;;;5.37;1.70;;;;;;;10.17;93.05;99848.41;4917537;29;20051;-82
2023/12/29 07:15:38;;;;;;;5.85;1.65;;;;;;;10.19;92.96;99873.66;4916643;29;20047;-84
2023/12/29 07:18:05;;;;;;;8.07;1.70;;;;;;;10.10;93.44;99863.38;4918419;29;20078;-84
2023/12/29 07:20:31;;;;;;;12.95;2.17;;;;;;;10.17;93.67;99861.50;4933181;29;20039;-83
2023/12/29 07:22:58;;;;;;;6.93;1.70;;;;;;;10.15;93.56;99858.06;4927371;29;20115;-84
2023/12/29 07:25:24;;;;;;;3.47;1.35;;;;;;;10.18;93.86;99869.34;4931056;29;20058;-84
2023/12/29 07:27:52;;;;;;;2.38;1.42;;;;;;;10.12;93.45;99856.38;4932800;29;20109;-83
2023/12/29 07:30:19;;;;;;;6.25;2.10;;;;;;;10.16;91.80;99844.09;4916043;29;20104;-84
2023/12/29 07:32:45;;;;;;;8.55;2.03;;;;;;;10.24;90.80;99858.72;4931118;29;20742;-83
2023/12/29 07:35:15;;;;;;;7.97;1.67;;;;;;;10.23;90.25;99845.69;4925496;29;20149;-84
2023/12/29 07:37:41;;;;;;;4.10;1.40;;;;;;;10.23;90.06;99850.91;4947279;29;20066;-83
2023/12/29 07:40:11;;;;;;;6.22;1.23;;;;;;;10.24;89.35;99863.09;4915262;29;20048;-83
2023/12/29 07:42:40;;;;;;;5.00;1.83;;;;;;;10.26;88.65;99864.81;4915791;29;20078;-83
2023/12/29 07:45:08;;;;;;;11.27;2.10;;;;;;;10.27;88.27;99843.00;4916220;29;20083;-84
2023/12/29 07:47:35;;;;;;;3.42;1.50;;;;;;;10.27;88.03;99874.38;4925297;29;20153;-82
2023/12/29 07:50:02;;;;;;;5.80;1.40;;;;;;;10.27;87.48;99866.53;4935095;29;20549;-82
2023/12/29 07:52:29;;;;;;;7.00;2.17;;;;;;;10.35;87.13;99875.97;4920710;29;20044;-84
2023/12/29 07:54:55;;;;;;;2.95;1.60;;;;;;;10.35;87.01;99878.56;4918760;29;20047;-84
2023/12/29 07:57:22;;;;;;;4.60;1.88;;;;;;;10.37;86.84;99879.44;4943034;29;20472;-84
2023/12/29 07:59:52;;;;;;;4.72;1.05;;;;;;;10.32;87.05;99889.97;4926618;29;20039;-85
2023/12/29 08:02:18;;;;;;;6.85;1.60;;;;;;;10.35;86.40;99887.34;4920487;29;20047;-84
2023/12/29 08:04:48;;;;;;;7.30;1.58;;;;;;;10.33;86.73;99896.06;4937240;29;20055;-84
2023/12/29 08:07:15;;;;;;;8.00;2.38;;;;;;;10.32;86.01;99889.13;4932829;29;20139;-84
2023/12/29 08:09:41;;;;;;;6.43;1.67;;;;;;;10.37;85.61;99900.38;4913085;29;20575;-84
2023/12/29 08:12:08;;;;;;;7.45;1.50;;;;;;;10.32;85.34;99889.13;4922819;29;20436;-85
2023/12/29 08:14:36;;;;;;;5.10;1.10;;;;;;;10.36;85.42;99893.41;4924177;29;20998;-84
2023/12/29 08:17:02;;;;;;;2.72;1.30;;;;;;;10.39;85.46;99898.56;4920735;29;20058;-84
2023/12/29 08:19:29;;;;;;;6.97;2.00;;;;;;;10.42;85.00;99904.63;4931753;29;20044;-84
2023/12/29 08:21:56;;;;;;;6.07;1.60;;;;;;;10.37;84.93;99877.69;4933080;29;20519;-83
2023/12/29 08:24:22;;;;;;;11.45;1.75;;;;;;;10.39;84.70;99898.56;4931347;29;20126;-84
2023/12/29 08:26:49;;;;;;;4.82;1.80;;;;;;;10.38;84.58;99868.94;4932546;29;20048;-83
2023/12/29 08:29:16;;;;;;;3.88;2.13;;;;;;;10.46;83.77;99901.97;4928533;29;20087;-83
2023/12/29 08:31:43;;;;;;;3.47;1.40;;;;;;;10.45;83.55;99918.53;4932292;29;20146;-83
2023/12/29 08:34:10;;;;;;;5.28;1.77;;;;;;;10.49;83.47;99913.19;4933550;29;20051;-84
2023/12/29 08:36:37;;;;;;;3.08;1.58;;;;;;;10.48;82.82;99908.88;4930593;29;20051;-83
2023/12/29 08:39:04;;;;;;;10.98;2.15;;;;;;;10.51;82.51;99914.03;4929674;29;20509;-84
2023/12/29 08:41:31;;;;;;;9.77;1.80;;;;;;;10.50;81.96;99899.22;4916440;29;20057;-85
2023/12/29 08:44:00;;;;;;;6.30;1.65;;;;;;;10.57;81.78;99913.03;4913604;29;20059;-83
2023/12/29 08:46:29;;;;;;;5.93;1.85;;;;;;;10.54;81.50;99877.31;4916465;29;20078;-86
2023/12/29 08:48:56;;;;;;;5.75;1.92;;;;;;;10.59;81.21;99900.81;4932451;29;20139;-83
2023/12/29 08:51:22;;;;;;;7.05;1.13;;;;;;;10.56;81.48;99895.63;4928000;29;20067;-84
2023/12/29 08:53:50;;;;;;;4.88;1.35;;;;;;;10.55;80.77;99896.53;4918045;29;21214;-85
2023/12/29 08:56:16;;;;;;;5.68;1.48;;;;;;;10.58;80.52;99891.22;4919712;29;20062;-83
2023/12/29 08:58:43;;;;;;;8.73;1.65;;;;;;;10.55;80.61;99881.66;4928820;29;20052;-84
2023/12/29 09:01:11;;;;;;;7.40;1.55;;;;;;;10.61;79.74;99883.28;4935597;29;20420;-84
2023/12/29 09:03:38;;;;;;;6.10;1.17;;;;;;;10.68;79.67;99887.50;4933143;29;20055;-82
2023/12/29 09:06:05;;;;;;;7.45;2.05;;;;;;;10.64;79.95;99883.25;4929291;29;20738;-83
2023/12/29 09:08:32;;;;;;;6.38;1.80;;;;;;;10.68;79.43;99877.03;4919270;29;20043;-83
2023/12/29 09:10:58;;;;;;;7.28;1.98;;;;;;;10.71;79.35;99879.56;4916572;29;20051;-85
2023/12/29 09:13:29;;;;;;;2.28;0.90;;;;;;;10.74;79.06;99882.16;4925125;29;20035;-83
2023/12/29 09:15:56;;;;;;;5.60;2.47;;;;;;;10.75;79.03;99886.50;4932913;29;20048;-83
2023/12/29 09:18:23;;;;;;;3.25;0.93;;;;;;;10.67;79.20;99885.78;4933531;29;20040;-84
2023/12/29 09:20:49;;;;;;;4.60;1.17;;;;;;;10.70;79.68;99895.31;4927935;29;20119;-84
2023/12/29 09:23:16;;;;;;;3.15;1.40;;;;;;;10.67;79.32;99890.16;4912856;29;20078;-83
2023/12/29 09:25:43;;;;;;;7.90;1.85;;;;;;;10.70;79.47;99893.59;4916002;29;20051;-83
2023/12/29 09:28:09;;;;;;;9.85;1.50;;;;;;;10.63;79.82;99886.75;4914320;29;20524;-84
2023/12/29 09:30:36;;;;;;;3.45;2.33;;;;;;;10.66;79.77;99904.13;4932392;29;20062;-83
2023/12/29 09:33:07;;;;;;;5.53;1.05;;;;;;;10.66;80.45;99893.66;4934078;29;20047;-84
2023/12/29 09:35:33;;;;;;;2.33;1.00;;;;;;;10.60;81.31;99907.75;4933207;29;20055;-84
2023/12/29 09:38:01;;;;;;;6.10;1.05;;;;;;;10.48;82.94;99894.91;4919720;29;20051;-84
2023/12/29 09:40:31;;;;;;;6.20;1.35;;;;;;;10.38;84.75;99916.03;4915121;29;20393;-83
2023/12/29 09:42:58;;;;;;;4.32;1.00;;;;;;;10.29;86.58;99905.72;4920046;29;20047;-84
2023/12/29 09:45:25;;;;;;;9.60;1.33;;;;;;;10.22;88.45;99912.84;4939656;29;20051;-84
2023/12/29 09:47:54;;;;;;;2.58;0.82;;;;;;;10.19;90.70;99923.34;4948505;29;20505;-84
2023/12/29 09:50:22;;;;;;;8.38;1.38;;;;;;;10.13;92.00;99919.97;4934363;29;20059;-85
2023/12/29 09:52:50;;;;;;;5.72;1.48;;;;;;;10.05;93.84;99922.75;4920678;29;20055;-84
2023/12/29 09:55:18;;;;;;;3.47;0.90;;;;;;;9.90;95.39;99926.50;4935489;29;20040;-85
2023/12/29 09:57:45;;;;;;;3.10;0.80;;;;;;;9.85;97.27;99942.25;4914367;29;20075;-85
2023/12/29 10:00:13;;;;;;;2.75;0.57;;;;;;;9.58;98.72;99922.69;4916033;29;20079;-83
2023/12/29 10:02:39;;;;;;;3.83;1.70;;;;;;;9.48;100.00;99927.22;4920652;29;20086;-84
2023/12/29 10:05:06;;;;;;;1.98;1.40;;;;;;;9.31;100.00;99914.44;4948137;29;20091;-85
2023/12/29 10:07:39;;;;;;;1.00;0.47;;;;;;;9.26;100.00;99917.09;4929670;29;20103;-85
2023/12/29 10:10:07;;;;;;;6.18;0.60;;;;;;;9.23;100.00;99921.50;4934653;29;20098;-84
2023/12/29 10:12:36;;;;;;;3.47;0.70;;;;;;;9.14;100.00;99919.03;4919188;29;20054;-85
2023/12/29 10:15:25;;;;;;;1.00;0.50;;;;;;;9.10;100.00;99915.63;4933538;29;20060;-83
2023/12/29 10:18:15;;;;;;;1.40;0.63;;;;;;;9.22;100.00;99906.75;4947536;28;21533;-83
2023/12/29 10:21:03;;;;;;;1.83;0.80;;;;;;;9.19;100.00;99912.88;4916258;29;20036;-84
2023/12/29 10:23:43;;;;;;;0.70;0.52;;;;;;;9.20;100.00;99917.19;4918543;29;20044;-84
2023/12/29 10:26:12;;;;;;;1.95;0.65;;;;;;;9.23;100.00;99908.44;4914805;29;20047;-84
2023/12/29 10:28:39;;;;;;;2.03;0.52;;;;;;;9.24;100.00;99908.44;4934100;29;20051;-84
2023/12/29 10:31:06;;;;;;;6.50;1.40;;;;;;;9.22;100.00;99923.25;4933599;29;20044;-82
2023/12/29 10:33:33;;;;;;;1.13;0.40;;;;;;;9.20;100.00;99930.25;4915591;29;20055;-84
2023/12/29 10:36:03;;;;;;;1.13;0.73;;;;;;;9.18;100.00;99928.56;4928857;29;20044;-83
2023/12/29 10:38:33;;;;;;;2.40;0.52;;;;;;;9.19;100.00;99912.88;4920964;29;20067;-84
2023/12/29 10:41:17;;;;;;;0.57;0.57;;;;;;;9.13;100.00;99904.28;4930313;29;20059;-84
2023/12/29 10:43:51;;;;;;;2.17;0.68;;;;;;;9.16;100.00;99901.59;4913312;29;20115;-84
2023/12/29 10:46:19;;;;;;;0.52;0.40;;;;;;;9.22;100.00;99891.06;4913135;29;20047;-83
2023/12/29 10:48:48;;;;;;;4.47;0.63;;;;;;;9.23;100.00;99903.22;4918988;29;20097;-84
2023/12/29 10:51:17;;;;;;;2.10;0.88;;;;;;;9.28;100.00;99898.78;4928863;29;20516;-84
2023/12/29 10:53:56;;;;;;;2.20;0.60;;;;;;;9.31;100.00;99896.16;4918253;29;20055;-80
2023/12/29 10:56:22;;;;;;;4.80;0.65;;;;;;;9.37;100.00;99887.34;4925869;29;20040;-81
2023/12/29 10:59:05;;;;;;;1.75;0.40;;;;;;;9.48;100.00;99874.97;4929466;29;20070;-81
2023/12/29 11:01:36;;;;;;;2.15;0.68;;;;;;;9.52;100.00;99870.56;4909047;29;20386;-85
2023/12/29 11:04:09;;;;;;;0.55;0.50;;;;;;;9.66;100.00;99865.06;4931952;29;20047;-81
2023/12/29 11:06:46;;;;;;;0.82;0.35;;;;;;;9.60;100.00;99858.22;4916355;29;20284;-78
2023/12/29 11:09:13;;;;;;;0.35;0.35;;;;;;;9.69;100.00;99860.66;4928296;29;20048;-80
2023/12/29 11:11:40;;;;;;;4.47;0.82;;;;;;;9.69;100.00;99851.97;4925739;29;20086;-80
2023/12/29 11:14:11;;;;;;;0.80;0.57;;;;;;;9.77;100.00;99852.69;4917702;29;20054;-79
2023/12/29 11:16:38;;;;;;;4.22;0.60;;;;;;;9.78;100.00;99843.94;4940508;29;20059;-82
2023/12/29 11:19:06;;;;;;;2.25;0.52;;;;;;;9.82;100.00;99845.63;4925474;29;20058;-81
2023/12/29 11:21:36;;;;;;;2.00;0.40;;;;;;;9.87;100.00;99846.38;4918418;29;20501;-81
2023/12/29 11:24:03;;;;;;;1.92;0.40;;;;;;;9.97;100.00;99843.59;4925889;29;20094;-80
2023/12/29 11:26:30;;;;;;;2.65;0.98;;;;;;;9.99;100.00;99837.44;4929251;28;20075;-81
2023/12/29 11:28:57;;;;;;;2.05;0.47;;;;;;;10.02;100.00;99840.00;4913273;29;20055;-82
2023/12/29 11:31:23;;;;;;;0.77;0.55;;;;;;;10.08;100.00;99839.88;4926135;29;20119;-82
2023/12/29 11:33:59;;;;;;;4.10;0.68;;;;;;;10.12;100.00;99831.94;4925638;29;20065;-81
2023/12/29 11:36:35;;;;;;;2.72;0.38;;;;;;;10.22;100.00;99828.25;4928653;29;20054;-80
2023/12/29 11:39:22;;;;;;;0.65;0.60;;;;;;;10.21;100.00;99793.41;4910545;29;20521;-80